La rose des vents
Donnes mto: Semaine 28/01/08 - 03/02/08 (S 5)
Date Horaire Temp. E. Hum. E. P.atmo. Pluie Vent 1mn Direction Ensoleilleme Ev.Tr. Solaire P. de rose Temp au vent Rafales
28/01/2008 00:00 8,6 C 93 % 1022,8 hPa 0,0 l/m 6,5 km/h (2 Bft) O 0,00 h 0,025 mm 0 W/m 7,6 C 7,8 C 8,4 km/h (2 Bft)
28/01/2008 01:00 8,4 C 93 % 1022,3 hPa 0,0 l/m 5,1 km/h (1 Bft) O-SO 0,00 h 0,025 mm 0 W/m 7,3 C 7,8 C 6,8 km/h (2 Bft)
28/01/2008 02:00 8,2 C 94 % 1022,6 hPa 0,0 l/m 2,8 km/h (1 Bft) S-SE 0,00 h 0,025 mm 0 W/m 7,2 C 8,1 C 3,9 km/h (1 Bft)
28/01/2008 03:00 8,9 C 94 % 1022,4 hPa 0,0 l/m 2,6 km/h (1 Bft) S 0,00 h 0,000 mm 0 W/m 8,0 C 8,8 C 3,7 km/h (1 Bft)
28/01/2008 04:00 8,5 C 94 % 1022,7 hPa 0,0 l/m 1,0 km/h (0 Bft) S 0,00 h 0,000 mm 0 W/m 7,6 C 8,5 C 1,7 km/h (1 Bft)
28/01/2008 05:00 8,3 C 94 % 1023,1 hPa 0,0 l/m 2,2 km/h (1 Bft) O-NO 0,00 h 0,000 mm 0 W/m 7,4 C 8,2 C 3,7 km/h (1 Bft)
28/01/2008 06:00 7,9 C 95 % 1023,5 hPa 0,0 l/m 1,3 km/h (1 Bft) NO 0,00 h 0,000 mm 0 W/m 7,1 C 7,8 C 1,9 km/h (1 Bft)
28/01/2008 07:00 7,8 C 95 % 1024,2 hPa 0,2 l/m 3,2 km/h (1 Bft) O-NO 0,00 h 0,000 mm 8 W/m 7,1 C 7,6 C 4,7 km/h (1 Bft)
28/01/2008 08:00 7,4 C 94 % 1025,3 hPa 0,0 l/m 1,4 km/h (1 Bft) NO 0,93 h 0,000 mm 85 W/m 6,5 C 7,4 C 2,7 km/h (1 Bft)
28/01/2008 09:00 10,5 C 69 % 1025,9 hPa 0,0 l/m 1,0 km/h (0 Bft) NO 1,00 h 0,051 mm 202 W/m 5,0 C 10,5 C 2,2 km/h (1 Bft)
28/01/2008 10:00 12,6 C 59 % 1026,1 hPa 0,0 l/m 0,9 km/h (0 Bft) E-NE 1,00 h 0,102 mm 338 W/m 4,8 C 12,6 C 2,3 km/h (1 Bft)
28/01/2008 11:00 15,1 C 58 % 1025,7 hPa 0,0 l/m 0,8 km/h (0 Bft) SE 1,00 h 0,178 mm 411 W/m 6,9 C 15,1 C 2,4 km/h (1 Bft)
28/01/2008 12:00 16,9 C 58 % 1025,1 hPa 0,0 l/m 2,6 km/h (1 Bft) E-SE 1,00 h 0,229 mm 455 W/m 8,5 C 16,9 C 5,0 km/h (1 Bft)
28/01/2008 13:00 16,1 C 72 % 1024,9 hPa 0,0 l/m 6,2 km/h (2 Bft) E 1,00 h 0,254 mm 420 W/m 10,9 C 16,1 C 9,0 km/h (2 Bft)
28/01/2008 14:00 14,7 C 78 % 1025,1 hPa 0,0 l/m 4,7 km/h (1 Bft) E-SE 1,00 h 0,254 mm 355 W/m 11,0 C 14,7 C 7,2 km/h (2 Bft)
28/01/2008 15:00 13,9 C 79 % 1025,2 hPa 0,0 l/m 1,8 km/h (1 Bft) E-SE 1,00 h 0,203 mm 237 W/m 10,4 C 13,9 C 4,2 km/h (1 Bft)
28/01/2008 16:00 12,6 C 87 % 1025,4 hPa 0,0 l/m 0,8 km/h (0 Bft) SE 0,63 h 0,127 mm 103 W/m 10,6 C 12,6 C 2,1 km/h (1 Bft)
28/01/2008 17:00 11,3 C 91 % 1025,4 hPa 0,0 l/m 1,5 km/h (1 Bft) SE 0,37 h 0,051 mm 21 W/m 9,8 C 11,3 C 2,2 km/h (1 Bft)
28/01/2008 18:00 10,7 C 91 % 1025,7 hPa 0,0 l/m 2,5 km/h (1 Bft) O 0,00 h 0,025 mm 0 W/m 9,4 C 10,7 C 3,8 km/h (1 Bft)
28/01/2008 19:00 10,4 C 92 % 1026,0 hPa 0,0 l/m 1,7 km/h (1 Bft) O 0,00 h 0,000 mm 0 W/m 9,2 C 10,4 C 2,7 km/h (1 Bft)
28/01/2008 20:00 10,5 C 92 % 1026,0 hPa 0,0 l/m 0,7 km/h (0 Bft) O 0,00 h 0,000 mm 0 W/m 9,3 C 10,5 C 1,0 km/h (0 Bft)
28/01/2008 21:00 10,4 C 92 % 1026,3 hPa 0,0 l/m 2,6 km/h (1 Bft) S 0,00 h 0,000 mm 0 W/m 9,2 C 10,4 C 3,7 km/h (1 Bft)
28/01/2008 22:00 9,7 C 93 % 1026,3 hPa 0,0 l/m 2,4 km/h (1 Bft) E-NE 0,00 h 0,000 mm 0 W/m 8,6 C 9,7 C 3,8 km/h (1 Bft)
28/01/2008 23:00 9,9 C 93 % 1026,5 hPa 0,0 l/m 0,8 km/h (0 Bft) E-NE 0,00 h 0,000 mm 0 W/m 8,8 C 9,9 C 1,7 km/h (1 Bft)
29/01/2008 00:00 9,7 C 94 % 1026,6 hPa 0,0 l/m 0,1 km/h (0 Bft) NE 0,00 h 0,000 mm 0 W/m 8,8 C 9,7 C 0,3 km/h (0 Bft)
29/01/2008 01:00 9,5 C 94 % 1026,3 hPa 0,0 l/m 0,8 km/h (0 Bft) NE 0,00 h 0,000 mm 0 W/m 8,6 C 9,5 C 1,3 km/h (1 Bft)
29/01/2008 02:00 8,1 C 94 % 1026,3 hPa 0,2 l/m 3,2 km/h (1 Bft) O-NO 0,00 h 0,000 mm 0 W/m 7,2 C 8,0 C 4,8 km/h (1 Bft)
29/01/2008 03:00 7,4 C 95 % 1026,4 hPa 0,0 l/m 1,1 km/h (1 Bft) O-NO 0,00 h 0,000 mm 0 W/m 6,6 C 7,3 C 1,6 km/h (1 Bft)
29/01/2008 04:00 8,1 C 95 % 1026,4 hPa 0,0 l/m 1,0 km/h (0 Bft) O-NO 0,00 h 0,000 mm 0 W/m 7,3 C 8,1 C 1,6 km/h (1 Bft)
29/01/2008 05:00 7,6 C 95 % 1026,3 hPa 0,0 l/m 2,1 km/h (1 Bft) NO 0,00 h 0,000 mm 0 W/m 6,9 C 7,5 C 3,0 km/h (1 Bft)
29/01/2008 06:00 7,8 C 95 % 1026,5 hPa 0,0 l/m 1,3 km/h (1 Bft) NO 0,00 h 0,000 mm 0 W/m 7,1 C 7,8 C 2,4 km/h (1 Bft)
29/01/2008 07:00 7,4 C 95 % 1026,8 hPa 0,0 l/m 1,4 km/h (1 Bft) NO 0,00 h 0,000 mm 6 W/m 6,6 C 7,3 C 2,6 km/h (1 Bft)
29/01/2008 08:00 7,3 C 96 % 1027,1 hPa 0,0 l/m 1,5 km/h (1 Bft) NO 0,57 h 0,000 mm 61 W/m 6,7 C 7,3 C 2,6 km/h (1 Bft)
29/01/2008 09:00 7,7 C 95 % 1027,6 hPa 0,0 l/m 3,0 km/h (1 Bft) N-NE 0,32 h 0,025 mm 128 W/m 7,0 C 7,5 C 5,1 km/h (1 Bft)
29/01/2008 10:00 9,6 C 94 % 1027,8 hPa 0,0 l/m 2,2 km/h (1 Bft) N-NO 0,03 h 0,051 mm 134 W/m 8,7 C 9,6 C 4,5 km/h (1 Bft)
29/01/2008 11:00 10,4 C 90 % 1027,8 hPa 0,0 l/m 1,7 km/h (1 Bft) N 0,00 h 0,051 mm 126 W/m 8,9 C 10,4 C 4,0 km/h (1 Bft)
29/01/2008 12:00 11,0 C 86 % 1026,9 hPa 0,0 l/m 1,1 km/h (1 Bft) N-NO 0,00 h 0,051 mm 101 W/m 8,8 C 11,0 C 2,6 km/h (1 Bft)
29/01/2008 13:00 11,3 C 85 % 1026,2 hPa 0,0 l/m 2,3 km/h (1 Bft) NO 0,00 h 0,051 mm 111 W/m 8,8 C 11,3 C 4,2 km/h (1 Bft)
29/01/2008 14:00 11,5 C 83 % 1025,6 hPa 0,0 l/m 2,0 km/h (1 Bft) NO 0,00 h 0,051 mm 67 W/m 8,7 C 11,5 C 3,3 km/h (1 Bft)
29/01/2008 15:00 11,3 C 84 % 1025,4 hPa 0,0 l/m 1,6 km/h (1 Bft) E-NE 0,00 h 0,051 mm 32 W/m 8,7 C 11,3 C 2,9 km/h (1 Bft)
29/01/2008 16:00 10,7 C 87 % 1025,0 hPa 0,0 l/m 2,0 km/h (1 Bft) E-NE 0,00 h 0,025 mm 12 W/m 8,6 C 10,7 C 3,6 km/h (1 Bft)
29/01/2008 17:00 10,3 C 88 % 1025,1 hPa 0,0 l/m 0,5 km/h (0 Bft) E-NE 0,00 h 0,000 mm 0 W/m 8,5 C 10,3 C 1,5 km/h (1 Bft)
29/01/2008 18:00 10,0 C 90 % 1025,3 hPa 0,0 l/m 0,8 km/h (0 Bft) E-NE 0,00 h 0,000 mm 0 W/m 8,4 C 10,0 C 1,8 km/h (1 Bft)
29/01/2008 19:00 9,8 C 90 % 1025,4 hPa 0,0 l/m 0,7 km/h (0 Bft) E-NE 0,00 h 0,000 mm 0 W/m 8,3 C 9,8 C 2,1 km/h (1 Bft)
29/01/2008 20:00 9,8 C 91 % 1025,4 hPa 0,0 l/m 1,1 km/h (0 Bft) N-NE 0,00 h 0,000 mm 0 W/m 8,4 C 9,8 C 2,0 km/h (1 Bft)
29/01/2008 21:00 9,8 C 91 % 1025,4 hPa 0,0 l/m 0,3 km/h (0 Bft) N-NE 0,00 h 0,000 mm 0 W/m 8,4 C 9,8 C 0,9 km/h (0 Bft)
29/01/2008 22:00 9,5 C 92 % 1025,3 hPa 0,0 l/m 0,6 km/h (0 Bft) N-NE 0,00 h 0,000 mm 0 W/m 8,3 C 9,5 C 1,7 km/h (1 Bft)
29/01/2008 23:00 9,7 C 92 % 1025,2 hPa 0,0 l/m 1,1 km/h (1 Bft) N-NE 0,00 h 0,000 mm 0 W/m 8,4 C 9,6 C 2,3 km/h (1 Bft)
30/01/2008 00:00 9,4 C 92 % 1024,8 hPa 0,0 l/m 0,0 km/h (0 Bft) N 0,00 h 0,000 mm 0 W/m 8,3 C 9,4 C 0,2 km/h (0 Bft)
30/01/2008 01:00 9,3 C 93 % 1024,3 hPa 0,0 l/m 1,0 km/h (0 Bft) NO 0,00 h 0,000 mm 0 W/m 8,3 C 9,3 C 1,8 km/h (1 Bft)
30/01/2008 02:00 9,5 C 93 % 1024,3 hPa 0,0 l/m 0,5 km/h (0 Bft) N-NO 0,00 h 0,000 mm 0 W/m 8,5 C 9,5 C 1,3 km/h (1 Bft)
30/01/2008 03:00 9,2 C 93 % 1024,1 hPa 0,0 l/m 2,4 km/h (1 Bft) N-NO 0,00 h 0,000 mm 0 W/m 8,1 C 9,1 C 4,0 km/h (1 Bft)
30/01/2008 04:00 9,1 C 94 % 1023,7 hPa 0,0 l/m 1,9 km/h (1 Bft) NO 0,00 h 0,000 mm 0 W/m 8,2 C 9,1 C 3,5 km/h (1 Bft)
30/01/2008 05:00 8,9 C 94 % 1023,2 hPa 0,0 l/m 4,6 km/h (1 Bft) O-NO 0,00 h 0,000 mm 0 W/m 8,0 C 8,6 C 5,9 km/h (2 Bft)
30/01/2008 06:00 8,9 C 93 % 1022,9 hPa 0,0 l/m 4,2 km/h (1 Bft) O 0,00 h 0,000 mm 0 W/m 7,8 C 8,6 C 5,5 km/h (1 Bft)
30/01/2008 07:00 8,2 C 93 % 1022,8 hPa 0,0 l/m 5,6 km/h (1 Bft) O-SO 0,00 h 0,000 mm 6 W/m 7,2 C 7,6 C 8,0 km/h (2 Bft)
30/01/2008 08:00 7,9 C 93 % 1022,8 hPa 0,0 l/m 7,2 km/h (2 Bft) O-SO 0,00 h 0,000 mm 27 W/m 6,7 C 6,7 C 10,1 km/h (2 Bft)
30/01/2008 09:00 9,1 C 88 % 1022,8 hPa 0,0 l/m 8,9 km/h (2 Bft) SO 0,62 h 0,025 mm 154 W/m 7,2 C 8,3 C 12,2 km/h (2 Bft)
30/01/2008 10:00 11,5 C 78 % 1022,5 hPa 0,0 l/m 8,9 km/h (2 Bft) SO 0,83 h 0,102 mm 266 W/m 7,8 C 11,5 C 13,3 km/h (3 Bft)
30/01/2008 11:00 11,9 C 78 % 1022,3 hPa 0,0 l/m 5,6 km/h (1 Bft) S-SO 0,12 h 0,152 mm 191 W/m 8,2 C 11,9 C 7,7 km/h (2 Bft)
30/01/2008 12:00 12,5 C 80 % 1021,5 hPa 0,0 l/m 6,3 km/h (2 Bft) E 0,65 h 0,102 mm 322 W/m 9,1 C 12,5 C 8,6 km/h (2 Bft)
30/01/2008 13:00 13,1 C 77 % 1020,6 hPa 0,0 l/m 5,6 km/h (1 Bft) E-NE 0,18 h 0,178 mm 165 W/m 9,1 C 13,1 C 8,1 km/h (2 Bft)
30/01/2008 14:00 12,2 C 80 % 1020,0 hPa 0,2 l/m 4,4 km/h (1 Bft) S-SE 0,15 h 0,102 mm 156 W/m 8,9 C 12,2 C 6,7 km/h (2 Bft)
30/01/2008 15:00 13,2 C 76 % 1019,7 hPa 0,0 l/m 3,1 km/h (1 Bft) S-SE 0,67 h 0,102 mm 209 W/m 9,1 C 13,2 C 5,3 km/h (1 Bft)
30/01/2008 16:00 12,6 C 77 % 1019,4 hPa 0,0 l/m 3,1 km/h (1 Bft) E 0,82 h 0,127 mm 120 W/m 8,8 C 12,6 C 5,0 km/h (1 Bft)
30/01/2008 17:00 10,5 C 84 % 1019,5 hPa 0,0 l/m 5,3 km/h (1 Bft) N-NE 0,05 h 0,076 mm 22 W/m 7,9 C 10,4 C 7,9 km/h (2 Bft)
30/01/2008 18:00 8,8 C 87 % 1019,6 hPa 0,0 l/m 5,2 km/h (1 Bft) N 0,00 h 0,025 mm 0 W/m 6,8 C 8,4 C 7,9 km/h (2 Bft)
30/01/2008 19:00 8,2 C 89 % 1020,1 hPa 0,0 l/m 4,3 km/h (1 Bft) N 0,00 h 0,025 mm 0 W/m 6,4 C 7,9 C 6,6 km/h (2 Bft)
30/01/2008 20:00 7,8 C 90 % 1020,1 hPa 0,0 l/m 2,9 km/h (1 Bft) N 0,00 h 0,025 mm 0 W/m 6,2 C 7,7 C 5,3 km/h (1 Bft)
30/01/2008 21:00 7,6 C 91 % 1019,8 hPa 0,0 l/m 2,8 km/h (1 Bft) N-NO 0,00 h 0,025 mm 0 W/m 6,2 C 7,6 C 4,6 km/h (1 Bft)
30/01/2008 22:00 8,3 C 90 % 1019,8 hPa 0,0 l/m 3,6 km/h (1 Bft) N-NO 0,00 h 0,000 mm 0 W/m 6,8 C 8,0 C 5,1 km/h (1 Bft)
30/01/2008 23:00 8,2 C 84 % 1019,7 hPa 0,0 l/m 3,0 km/h (1 Bft) O 0,00 h 0,025 mm 0 W/m 5,7 C 7,9 C 4,2 km/h (1 Bft)
31/01/2008 00:00 8,0 C 81 % 1019,5 hPa 0,0 l/m 2,8 km/h (1 Bft) O 0,00 h 0,025 mm 0 W/m 4,9 C 7,8 C 3,6 km/h (1 Bft)
31/01/2008 01:00 8,5 C 76 % 1019,0 hPa 0,0 l/m 5,9 km/h (2 Bft) O-SO 0,00 h 0,025 mm 0 W/m 4,6 C 7,7 C 7,2 km/h (2 Bft)
31/01/2008 02:00 8,4 C 77 % 1018,6 hPa 0,0 l/m 5,4 km/h (1 Bft) O 0,00 h 0,025 mm 0 W/m 4,7 C 7,8 C 7,0 km/h (2 Bft)
31/01/2008 03:00 8,2 C 78 % 1018,2 hPa 0,0 l/m 5,9 km/h (2 Bft) O 0,00 h 0,025 mm 0 W/m 4,6 C 7,4 C 7,4 km/h (2 Bft)
31/01/2008 04:00 7,9 C 77 % 1017,8 hPa 0,0 l/m 4,4 km/h (1 Bft) O 0,00 h 0,025 mm 0 W/m 4,1 C 7,5 C 6,1 km/h (2 Bft)
31/01/2008 05:00 7,7 C 76 % 1017,9 hPa 0,0 l/m 5,2 km/h (1 Bft) O-NO 0,00 h 0,025 mm 0 W/m 3,8 C 7,1 C 7,3 km/h (2 Bft)
31/01/2008 06:00 7,7 C 77 % 1018,0 hPa 0,0 l/m 4,5 km/h (1 Bft) O-NO 0,00 h 0,025 mm 0 W/m 3,9 C 7,3 C 6,4 km/h (2 Bft)
31/01/2008 07:00 8,0 C 78 % 1018,5 hPa 0,0 l/m 1,8 km/h (1 Bft) NO 0,00 h 0,025 mm 6 W/m 4,4 C 8,0 C 3,2 km/h (1 Bft)
31/01/2008 08:00 8,2 C 78 % 1019,1 hPa 0,0 l/m 4,0 km/h (1 Bft) NO 0,02 h 0,000 mm 37 W/m 4,5 C 7,8 C 6,1 km/h (2 Bft)
31/01/2008 09:00 9,7 C 74 % 1019,2 hPa 0,0 l/m 2,1 km/h (1 Bft) O-NO 0,75 h 0,025 mm 155 W/m 5,2 C 9,6 C 3,6 km/h (1 Bft)
31/01/2008 10:00 10,8 C 71 % 1019,6 hPa 0,0 l/m 1,8 km/h (1 Bft) O-NO 0,68 h 0,076 mm 251 W/m 5,8 C 10,8 C 3,4 km/h (1 Bft)
31/01/2008 11:00 12,8 C 64 % 1020,0 hPa 0,0 l/m 3,7 km/h (1 Bft) E-SE 1,00 h 0,127 mm 397 W/m 6,2 C 12,8 C 6,0 km/h (2 Bft)
31/01/2008 12:00 13,5 C 66 % 1019,8 hPa 0,0 l/m 6,2 km/h (2 Bft) E 1,00 h 0,203 mm 448 W/m 7,4 C 13,5 C 10,0 km/h (2 Bft)
31/01/2008 13:00 13,4 C 72 % 1019,3 hPa 0,0 l/m 5,1 km/h (1 Bft) E 0,93 h 0,254 mm 422 W/m 8,4 C 13,4 C 9,2 km/h (2 Bft)
31/01/2008 14:00 12,8 C 76 % 1018,8 hPa 0,0 l/m 5,5 km/h (1 Bft) E 0,68 h 0,229 mm 313 W/m 8,7 C 12,8 C 9,9 km/h (2 Bft)
31/01/2008 15:00 12,4 C 77 % 1018,8 hPa 0,0 l/m 4,2 km/h (1 Bft) E-SE 0,78 h 0,178 mm 225 W/m 8,5 C 12,4 C 7,0 km/h (2 Bft)
31/01/2008 16:00 11,4 C 81 % 1018,8 hPa 0,0 l/m 1,6 km/h (1 Bft) E-SE 0,12 h 0,127 mm 75 W/m 8,3 C 11,4 C 3,6 km/h (1 Bft)
31/01/2008 17:00 10,2 C 85 % 1018,8 hPa 0,0 l/m 2,3 km/h (1 Bft) SE 0,02 h 0,051 mm 18 W/m 7,8 C 10,2 C 3,7 km/h (1 Bft)
31/01/2008 18:00 9,8 C 87 % 1019,0 hPa 0,0 l/m 2,2 km/h (1 Bft) SE 0,00 h 0,025 mm 0 W/m 7,8 C 9,8 C 3,3 km/h (1 Bft)
31/01/2008 19:00 9,6 C 88 % 1019,3 hPa 0,0 l/m 2,7 km/h (1 Bft) O-SO 0,00 h 0,000 mm 0 W/m 7,7 C 9,6 C 3,9 km/h (1 Bft)
31/01/2008 20:00 9,1 C 89 % 1019,3 hPa 0,0 l/m 1,1 km/h (1 Bft) O-SO 0,00 h 0,025 mm 0 W/m 7,3 C 9,1 C 1,9 km/h (1 Bft)
31/01/2008 21:00 8,6 C 90 % 1019,0 hPa 0,0 l/m 3,7 km/h (1 Bft) O-SO 0,00 h 0,025 mm 0 W/m 7,0 C 8,4 C 4,9 km/h (1 Bft)
31/01/2008 22:00 7,6 C 91 % 1019,1 hPa 0,0 l/m 4,0 km/h (1 Bft) O 0,00 h 0,025 mm 0 W/m 6,2 C 7,3 C 5,7 km/h (1 Bft)
31/01/2008 23:00 6,9 C 91 % 1018,9 hPa 0,0 l/m 3,6 km/h (1 Bft) O-NO 0,00 h 0,050 mm 0 W/m 5,5 C 6,7 C 5,2 km/h (1 Bft)
01/02/2008 00:00 6,4 C 91 % 1018,7 hPa 0,0 l/m 3,4 km/h (1 Bft) O-NO 0,00 h 0,000 mm 0 W/m 5,1 C 6,2 C 5,3 km/h (1 Bft)
01/02/2008 01:00 6,3 C 88 % 1018,1 hPa 0,0 l/m 5,1 km/h (1 Bft) O-NO 0,00 h 0,000 mm 0 W/m 4,6 C 5,6 C 6,6 km/h (2 Bft)
01/02/2008 02:00 6,0 C 80 % 1017,4 hPa 0,0 l/m 4,3 km/h (1 Bft) O 0,00 h 0,025 mm 0 W/m 2,8 C 5,5 C 5,8 km/h (1 Bft)
01/02/2008 03:00 5,9 C 79 % 1016,9 hPa 0,0 l/m 3,2 km/h (1 Bft) NO 0,00 h 0,025 mm 0 W/m 2,6 C 5,6 C 4,7 km/h (1 Bft)
01/02/2008 04:00 6,1 C 80 % 1016,1 hPa 0,0 l/m 1,0 km/h (0 Bft) NO 0,00 h 0,025 mm 0 W/m 2,9 C 6,1 C 1,5 km/h (1 Bft)
01/02/2008 05:00 5,5 C 79 % 1015,4 hPa 0,0 l/m 0,3 km/h (0 Bft) NO 0,00 h 0,025 mm 0 W/m 2,2 C 5,5 C 0,7 km/h (0 Bft)
01/02/2008 06:00 5,4 C 80 % 1015,3 hPa 0,0 l/m 1,7 km/h (1 Bft) NO 0,00 h 0,025 mm 0 W/m 2,3 C 5,4 C 2,5 km/h (1 Bft)
01/02/2008 07:00 5,2 C 81 % 1015,6 hPa 0,0 l/m 2,3 km/h (1 Bft) NO 0,00 h 0,025 mm 9 W/m 2,3 C 5,0 C 3,8 km/h (1 Bft)
01/02/2008 08:00 5,7 C 81 % 1015,4 hPa 0,0 l/m 1,8 km/h (1 Bft) NO 0,07 h 0,000 mm 24 W/m 2,7 C 5,6 C 3,1 km/h (1 Bft)
01/02/2008 09:00 6,0 C 81 % 1015,4 hPa 0,0 l/m 2,5 km/h (1 Bft) NO 0,07 h 0,025 mm 89 W/m 3,0 C 5,8 C 3,8 km/h (1 Bft)
01/02/2008 10:00 8,1 C 72 % 1015,5 hPa 0,0 l/m 4,8 km/h (1 Bft) O-SO 0,73 h 0,051 mm 256 W/m 3,3 C 7,5 C 7,3 km/h (2 Bft)
01/02/2008 11:00 9,1 C 67 % 1015,5 hPa 0,0 l/m 5,9 km/h (2 Bft) O 0,58 h 0,127 mm 275 W/m 3,3 C 8,5 C 9,5 km/h (2 Bft)
01/02/2008 12:00 11,1 C 50 % 1014,7 hPa 0,0 l/m 10,2 km/h (2 Bft) S-SO 1,00 h 0,152 mm 423 W/m 1,2 C 11,1 C 14,3 km/h (3 Bft)
01/02/2008 13:00 11,6 C 48 % 1013,7 hPa 0,0 l/m 16,4 km/h (3 Bft) S-SO 0,98 h 0,254 mm 311 W/m 0,9 C 11,6 C 22,3 km/h (4 Bft)
01/02/2008 14:00 11,8 C 48 % 1013,0 hPa 0,0 l/m 15,7 km/h (3 Bft) S-SO 0,93 h 0,254 mm 257 W/m 1,3 C 11,8 C 22,0 km/h (4 Bft)
01/02/2008 15:00 11,9 C 48 % 1012,7 hPa 0,0 l/m 12,9 km/h (3 Bft) S-SO 0,88 h 0,229 mm 206 W/m 1,2 C 11,9 C 17,9 km/h (3 Bft)
01/02/2008 16:00 11,4 C 50 % 1012,6 hPa 0,0 l/m 10,0 km/h (2 Bft) S-SO 0,00 h 0,178 mm 84 W/m 1,4 C 11,4 C 13,9 km/h (3 Bft)
01/02/2008 17:00 10,6 C 54 % 1012,7 hPa 0,0 l/m 7,8 km/h (2 Bft) S-SO 0,00 h 0,102 mm 15 W/m 1,6 C 10,6 C 10,9 km/h (2 Bft)
01/02/2008 18:00 9,9 C 57 % 1012,8 hPa 0,0 l/m 0,8 km/h (0 Bft) O-SO 0,00 h 0,051 mm 0 W/m 1,7 C 9,9 C 1,7 km/h (1 Bft)
01/02/2008 19:00 9,6 C 58 % 1013,0 hPa 0,0 l/m 1,9 km/h (1 Bft) SO 0,00 h 0,025 mm 0 W/m 1,6 C 9,5 C 2,8 km/h (1 Bft)
01/02/2008 20:00 9,4 C 61 % 1013,1 hPa 0,0 l/m 9,2 km/h (2 Bft) SO 0,00 h 0,025 mm 0 W/m 2,2 C 8,2 C 13,0 km/h (3 Bft)
01/02/2008 21:00 9,1 C 67 % 1013,2 hPa 0,0 l/m 12,0 km/h (2 Bft) O-SO 0,00 h 0,051 mm 0 W/m 3,2 C 7,3 C 15,9 km/h (3 Bft)
01/02/2008 22:00 8,5 C 69 % 1012,9 hPa 0,0 l/m 6,6 km/h (2 Bft) O-SO 0,00 h 0,051 mm 0 W/m 3,2 C 7,6 C 10,0 km/h (2 Bft)
01/02/2008 23:00 8,6 C 67 % 1012,6 hPa 0,0 l/m 12,0 km/h (2 Bft) SO 0,00 h 0,051 mm 0 W/m 2,7 C 6,6 C 15,6 km/h (3 Bft)
02/02/2008 00:00 7,4 C 79 % 1012,1 hPa 1,4 l/m 9,4 km/h (2 Bft) NO 0,00 h 0,051 mm 0 W/m 3,9 C 5,7 C 13,2 km/h (3 Bft)
02/02/2008 01:00 6,9 C 88 % 1011,5 hPa 3,8 l/m 5,6 km/h (1 Bft) O-NO 0,00 h 0,025 mm 0 W/m 5,1 C 5,9 C 7,6 km/h (2 Bft)
02/02/2008 02:00 6,5 C 91 % 1010,9 hPa 3,8 l/m 2,7 km/h (1 Bft) NO 0,00 h 0,025 mm 0 W/m 5,1 C 6,5 C 4,7 km/h (1 Bft)
02/02/2008 03:00 6,3 C 92 % 1010,1 hPa 1,8 l/m 2,6 km/h (1 Bft) N-NO 0,00 h 0,000 mm 0 W/m 5,1 C 6,1 C 4,3 km/h (1 Bft)
02/02/2008 04:00 6,4 C 93 % 1009,5 hPa 1,2 l/m 3,2 km/h (1 Bft) O 0,00 h 0,000 mm 0 W/m 5,4 C 6,0 C 5,0 km/h (1 Bft)
02/02/2008 05:00 6,1 C 93 % 1009,3 hPa 0,0 l/m 2,4 km/h (1 Bft) SO 0,00 h 0,000 mm 0 W/m 5,1 C 5,8 C 3,1 km/h (1 Bft)
02/02/2008 06:00 6,0 C 94 % 1008,9 hPa 0,2 l/m 5,0 km/h (1 Bft) O-SO 0,00 h 0,000 mm 0 W/m 5,1 C 5,1 C 7,6 km/h (2 Bft)
02/02/2008 07:00 5,7 C 94 % 1008,5 hPa 0,0 l/m 4,3 km/h (1 Bft) O 0,02 h 0,000 mm 9 W/m 4,9 C 5,1 C 6,5 km/h (2 Bft)
02/02/2008 08:00 5,7 C 95 % 1008,5 hPa 0,0 l/m 3,3 km/h (1 Bft) O-NO 1,00 h 0,000 mm 98 W/m 5,0 C 5,2 C 5,0 km/h (1 Bft)
02/02/2008 09:00 6,9 C 94 % 1008,5 hPa 0,0 l/m 3,0 km/h (1 Bft) O-NO 0,70 h 0,051 mm 200 W/m 6,1 C 6,7 C 4,9 km/h (1 Bft)
02/02/2008 10:00 8,7 C 88 % 1008,8 hPa 0,0 l/m 1,6 km/h (1 Bft) N 0,92 h 0,076 mm 337 W/m 6,9 C 8,7 C 3,3 km/h (1 Bft)
02/02/2008 11:00 10,6 C 79 % 1008,9 hPa 0,0 l/m 3,7 km/h (1 Bft) N 1,00 h 0,152 mm 442 W/m 7,0 C 10,5 C 6,3 km/h (2 Bft)
02/02/2008 12:00 12,4 C 70 % 1009,3 hPa 0,0 l/m 11,0 km/h (2 Bft) E-NE 1,00 h 0,229 mm 476 W/m 7,1 C 12,4 C 15,8 km/h (3 Bft)
02/02/2008 13:00 12,0 C 74 % 1009,8 hPa 0,0 l/m 16,7 km/h (3 Bft) E-NE 0,90 h 0,279 mm 455 W/m 7,5 C 12,0 C 22,6 km/h (4 Bft)
02/02/2008 14:00 10,9 C 76 % 1010,2 hPa 0,0 l/m 15,1 km/h (3 Bft) E-NE 0,00 h 0,279 mm 165 W/m 6,9 C 10,9 C 20,4 km/h (4 Bft)
02/02/2008 15:00 10,6 C 79 % 1010,6 hPa 0,0 l/m 15,4 km/h (3 Bft) E-NE 0,08 h 0,127 mm 133 W/m 7,0 C 10,6 C 21,0 km/h (4 Bft)
02/02/2008 16:00 10,1 C 80 % 1011,4 hPa 0,0 l/m 12,7 km/h (3 Bft) E-NE 0,00 h 0,102 mm 51 W/m 6,9 C 9,6 C 17,7 km/h (3 Bft)
02/02/2008 17:00 9,5 C 82 % 1012,2 hPa 0,0 l/m 10,5 km/h (2 Bft) E-NE 0,00 h 0,051 mm 16 W/m 6,6 C 8,0 C 15,1 km/h (3 Bft)
02/02/2008 18:00 9,4 C 82 % 1013,1 hPa 0,0 l/m 9,6 km/h (2 Bft) NE 0,00 h 0,025 mm 0 W/m 6,5 C 8,0 C 14,2 km/h (3 Bft)
02/02/2008 19:00 9,4 C 80 % 1014,0 hPa 0,0 l/m 12,1 km/h (2 Bft) E-NE 0,00 h 0,025 mm 0 W/m 6,2 C 7,6 C 16,9 km/h (3 Bft)
02/02/2008 20:00 9,4 C 78 % 1014,8 hPa 0,0 l/m 7,9 km/h (2 Bft) NE 0,00 h 0,051 mm 0 W/m 5,8 C 8,4 C 11,9 km/h (2 Bft)
02/02/2008 21:00 7,9 C 79 % 1015,5 hPa 0,0 l/m 4,7 km/h (1 Bft) N-NE 0,00 h 0,025 mm 0 W/m 4,5 C 7,5 C 7,6 km/h (2 Bft)
02/02/2008 22:00 6,5 C 81 % 1016,0 hPa 0,0 l/m 4,3 km/h (1 Bft) N 0,00 h 0,025 mm 0 W/m 3,4 C 6,1 C 6,4 km/h (2 Bft)
02/02/2008 23:00 6,6 C 80 % 1016,3 hPa 0,0 l/m 6,3 km/h (2 Bft) N-NE 0,00 h 0,025 mm 0 W/m 3,5 C 5,5 C 9,7 km/h (2 Bft)
03/02/2008 00:00 6,2 C 79 % 1016,7 hPa 0,0 l/m 4,4 km/h (1 Bft) N 0,00 h 0,025 mm 0 W/m 2,8 C 5,6 C 7,0 km/h (2 Bft)
03/02/2008 01:00 5,8 C 81 % 1016,9 hPa 0,0 l/m 3,4 km/h (1 Bft) N 0,00 h 0,025 mm 0 W/m 2,8 C 5,5 C 6,1 km/h (2 Bft)
03/02/2008 02:00 6,0 C 81 % 1017,4 hPa 0,0 l/m 4,0 km/h (1 Bft) N 0,00 h 0,025 mm 0 W/m 3,0 C 5,5 C 6,7 km/h (2 Bft)
03/02/2008 03:00 6,3 C 80 % 1017,3 hPa 0,0 l/m 5,2 km/h (1 Bft) N 0,00 h 0,025 mm 0 W/m 3,1 C 5,6 C 8,3 km/h (2 Bft)
03/02/2008 04:00 6,4 C 77 % 1017,4 hPa 0,0 l/m 6,8 km/h (2 Bft) N 0,00 h 0,025 mm 0 W/m 2,7 C 5,1 C 10,9 km/h (2 Bft)
03/02/2008 05:00 7,3 C 68 % 1017,8 hPa 0,0 l/m 6,6 km/h (2 Bft) N-NE 0,00 h 0,025 mm 0 W/m 1,9 C 6,3 C 9,8 km/h (2 Bft)
03/02/2008 06:00 7,4 C 63 % 1018,2 hPa 0,0 l/m 4,2 km/h (1 Bft) N-NE 0,00 h 0,051 mm 0 W/m 0,8 C 7,0 C 6,6 km/h (2 Bft)
03/02/2008 07:00 7,0 C 60 % 1018,5 hPa 0,0 l/m 2,8 km/h (1 Bft) N 0,00 h 0,025 mm 6 W/m -0,3 C 6,9 C 4,7 km/h (1 Bft)
03/02/2008 08:00 7,1 C 58 % 1019,1 hPa 0,0 l/m 2,6 km/h (1 Bft) N 0,00 h 0,025 mm 19 W/m -0,6 C 7,0 C 3,8 km/h (1 Bft)
03/02/2008 09:00 6,9 C 65 % 1020,0 hPa 0,0 l/m 5,0 km/h (1 Bft) N 0,00 h 0,025 mm 65 W/m 0,8 C 6,2 C 7,7 km/h (2 Bft)
03/02/2008 10:00 7,8 C 66 % 1020,5 hPa 0,0 l/m 3,2 km/h (1 Bft) N 0,00 h 0,051 mm 74 W/m 1,9 C 7,5 C 5,8 km/h (2 Bft)
03/02/2008 11:00 9,6 C 64 % 1020,6 hPa 0,0 l/m 2,2 km/h (1 Bft) N-NE 0,00 h 0,051 mm 108 W/m 3,1 C 9,6 C 4,3 km/h (1 Bft)
03/02/2008 12:00 9,3 C 64 % 1020,2 hPa 0,0 l/m 7,5 km/h (2 Bft) N-NE 0,00 h 0,076 mm 70 W/m 2,7 C 8,3 C 11,0 km/h (2 Bft)
03/02/2008 13:00 8,3 C 72 % 1019,9 hPa 0,4 l/m 6,2 km/h (2 Bft) N-NE 0,00 h 0,076 mm 87 W/m 3,5 C 7,4 C 10,6 km/h (2 Bft)
03/02/2008 14:00 7,4 C 84 % 1019,3 hPa 0,0 l/m 5,0 km/h (1 Bft) N-NO 0,00 h 0,051 mm 93 W/m 4,8 C 6,8 C 8,7 km/h (2 Bft)
03/02/2008 15:00 9,3 C 75 % 1018,5 hPa 0,0 l/m 4,5 km/h (1 Bft) N-NE 0,60 h 0,051 mm 216 W/m 5,2 C 9,1 C 7,0 km/h (2 Bft)
03/02/2008 16:00 9,6 C 70 % 1018,3 hPa 0,0 l/m 5,7 km/h (1 Bft) NE 0,18 h 0,127 mm 63 W/m 4,4 C 9,1 C 7,6 km/h (2 Bft)
03/02/2008 17:00 8,6 C 73 % 1018,3 hPa 0,0 l/m 4,0 km/h (1 Bft) N-NE 0,00 h 0,051 mm 13 W/m 3,9 C 8,3 C 6,2 km/h (2 Bft)
03/02/2008 18:00 8,5 C 72 % 1018,6 hPa 0,2 l/m 1,7 km/h (1 Bft) N 0,00 h 0,025 mm 0 W/m 3,8 C 8,5 C 3,4 km/h (1 Bft)
03/02/2008 19:00 8,1 C 73 % 1018,7 hPa 0,0 l/m 3,2 km/h (1 Bft) N 0,00 h 0,025 mm 0 W/m 3,5 C 8,0 C 5,3 km/h (1 Bft)
03/02/2008 20:00 7,5 C 75 % 1018,5 hPa 0,0 l/m 4,4 km/h (1 Bft) N 0,00 h 0,025 mm 0 W/m 3,4 C 7,2 C 6,6 km/h (2 Bft)
03/02/2008 21:00 7,7 C 76 % 1018,3 hPa 0,0 l/m 3,3 km/h (1 Bft) N-NE 0,00 h 0,025 mm 0 W/m 3,8 C 7,6 C 5,4 km/h (1 Bft)
03/02/2008 22:00 7,6 C 76 % 1018,2 hPa 0,0 l/m 3,7 km/h (1 Bft) N 0,00 h 0,025 mm 0 W/m 3,7 C 7,4 C 6,1 km/h (2 Bft)
03/02/2008 23:00 7,6 C 76 % 1017,8 hPa 0,0 l/m 4,1 km/h (1 Bft) N-NE 0,00 h 0,025 mm 0 W/m 3,7 C 7,3 C 6,6 km/h (2 Bft)
Min-Date _ 01/02/08 01/02/08 02/02/08 - 28/01/08 - - - - 03/02/08 02/02/08 28/01/08
_ Min-Heure 07:07 12:45 07:30 - 01:44 - - - - 08:01 08:16 01:57
Minimum _ 5,1 C 46 % 1008,4 hPa - 0,0 km/h (0 Bft) - - - - -1,0 C 2,9 C 0,0 km/h (0 Bft)
Max-Date _ 28/01/08 29/01/08 29/01/08 02/02/08 02/02/08 - 28/01/08 02/02/08 02/02/08 28/01/08 28/01/08 01/02/08
_ Max-Heure 12:59 08:58 10:45 01:11 13:57 - 08:04 13:00 13:51 13:35 12:59 14:58
Maximum _ 17,5 C 97 % 1028,0 hPa 3,8 l/m 25,7 km/h
E-NE (4 Bft)
- 0,02 h 0,279 mm 557 W/m 11,9 C 17,5 C 33,8 km/h
S-SO (5 Bft)
Moyenne _ 9,1 C 81 % 1019,4 hPa #13,4 l/m 4,2 km/h (1 Bft) N #31:34 h #8,975 mm 165 W/m 5,9 C 8,8 C 6,4 km/h (2 Bft)
Roquefort les pins